Time;durP1;ratioP1;P1;durP2;ratioP2;P2;SDS_P1;SDS_P2;PMS_P1;PMS_P2;Temp;Humidity;BMP_temperature;BMP_pressure;BME280_temperature;BME280_humidity;BME280_pressure;Samples;Min_cycle;Max_cycle;Signal;HPM_P1;HPM_P2
2021/09/29 00:02:13;;;;;;;0.10;0.10;;;;;;;10.99;86.06;100082.47;4994507;28;20030;-77
2021/09/29 00:04:48;;;;;;;;;;;;;;;;;;;;;
2021/09/29 00:07:24;;;;;;;;;;;;;;;;;;;;;
2021/09/29 00:09:49;;;;;;;0.15;0.00;;;;;;;10.92;85.25;100088.22;4989429;28;20101;-75
2021/09/29 00:12:15;;;;;;;0.00;0.00;;;;;;;10.83;85.35;100100.81;4989823;28;20065;-76
2021/09/29 00:14:41;;;;;;;0.68;0.17;;;;;;;10.76;85.69;100094.81;4998432;28;20033;-77
2021/09/29 00:17:06;;;;;;;1.08;0.00;;;;;;;10.73;85.37;100095.34;5008153;28;20026;-76
2021/09/29 00:19:32;;;;;;;0.00;0.00;;;;;;;10.76;85.22;100103.84;5015486;28;20034;-75
2021/09/29 00:21:57;;;;;;;2.90;0.10;;;;;;;10.70;85.00;100107.66;5002599;28;20038;-75
2021/09/29 00:24:23;;;;;;;1.17;0.00;;;;;;;10.65;85.46;100103.03;4983184;28;20030;-74
2021/09/29 00:26:48;;;;;;;0.00;0.00;;;;;;;10.48;85.19;100088.81;4981791;28;20031;-74
2021/09/29 00:29:14;;;;;;;0.10;0.10;;;;;;;10.51;85.05;100104.66;4996086;28;20042;-73
2021/09/29 00:31:41;;;;;;;0.10;0.10;;;;;;;10.43;85.54;100105.22;4987880;28;20046;-74
2021/09/29 00:34:09;;;;;;;0.20;0.10;;;;;;;10.35;85.62;100106.56;4990684;28;20033;-73
2021/09/29 00:36:37;;;;;;;0.00;0.00;;;;;;;10.33;85.29;100110.66;4989680;28;20437;-72
2021/09/29 00:39:03;;;;;;;0.03;0.03;;;;;;;10.27;85.31;100109.81;4990232;28;20589;-75
2021/09/29 00:41:49;;;;;;;0.38;0.00;;;;;;;10.29;85.59;100130.34;4985170;28;20062;-72
2021/09/29 00:44:18;;;;;;;0.55;0.10;;;;;;;10.26;85.82;100119.09;4989885;28;20018;-73
2021/09/29 00:46:44;;;;;;;1.02;0.20;;;;;;;10.23;85.66;100125.94;4988278;28;20030;-74
2021/09/29 00:49:09;;;;;;;0.10;0.10;;;;;;;10.24;85.92;100143.97;4974328;28;20338;-73
2021/09/29 00:51:36;;;;;;;0.47;0.10;;;;;;;10.22;86.02;100139.88;4991048;28;20026;-72
2021/09/29 00:54:04;;;;;;;0.10;0.10;;;;;;;10.22;86.32;100135.25;4971903;28;20034;-74
2021/09/29 00:56:29;;;;;;;0.10;0.10;;;;;;;10.21;86.03;100132.78;4995943;28;20102;-74
2021/09/29 00:58:55;;;;;;;4.28;0.20;;;;;;;10.11;85.98;100136.31;5000938;28;20034;-73
2021/09/29 01:01:22;;;;;;;0.10;0.00;;;;;;;10.11;85.91;100136.31;4986362;28;20033;-73
2021/09/29 01:03:51;;;;;;;0.10;0.10;;;;;;;10.06;85.72;100139.00;4978468;28;20400;-74
2021/09/29 01:06:55;;;;;;;0.13;0.10;;;;;;;10.11;85.92;100149.97;4969472;28;20034;-75
2021/09/29 01:09:27;;;;;;;0.17;0.17;;;;;;;10.09;85.94;100157.59;4986588;28;20033;-74
2021/09/29 01:12:24;;;;;;;0.10;0.10;;;;;;;10.11;85.86;100155.44;4990332;28;20061;-75
2021/09/29 01:14:56;;;;;;;0.20;0.10;;;;;;;10.12;86.46;100157.06;4986837;28;20473;-75
2021/09/29 01:17:22;;;;;;;0.10;0.10;;;;;;;10.12;86.56;100157.06;4988123;28;20121;-74
2021/09/29 01:19:56;;;;;;;1.27;0.40;;;;;;;10.13;86.09;100159.53;4996265;28;20035;-74
2021/09/29 01:22:37;;;;;;;0.35;0.10;;;;;;;10.04;85.66;100149.41;4979545;28;20030;-75
2021/09/29 01:25:05;;;;;;;0.10;0.10;;;;;;;9.97;85.71;100144.16;4987323;28;20030;-75
2021/09/29 01:27:33;;;;;;;0.35;0.13;;;;;;;9.94;85.25;100144.72;4993417;28;20037;-75
2021/09/29 01:29:59;;;;;;;0.35;0.20;;;;;;;9.79;85.74;100135.38;4993162;28;20026;-75
2021/09/29 01:32:25;;;;;;;0.00;0.00;;;;;;;9.85;85.70;100157.25;4974489;28;20381;-75
2021/09/29 01:34:51;;;;;;;0.35;0.10;;;;;;;9.72;85.87;100142.19;4984592;28;20031;-74
2021/09/29 01:37:17;;;;;;;0.10;0.10;;;;;;;9.76;85.91;100165.94;4992544;28;20027;-76
2021/09/29 01:39:44;;;;;;;1.73;0.20;;;;;;;9.69;85.58;100170.03;4999000;28;20030;-74
2021/09/29 01:42:12;;;;;;;1.73;0.10;;;;;;;9.61;86.04;100169.44;4977828;28;20473;-75
2021/09/29 01:44:37;;;;;;;0.50;0.20;;;;;;;9.57;86.01;100181.16;4993844;28;20097;-75
2021/09/29 01:47:13;;;;;;;2.20;0.85;;;;;;;9.65;86.26;100188.03;4995285;28;20504;-73
2021/09/29 01:49:46;;;;;;;1.63;0.20;;;;;;;9.65;86.62;100190.75;4985147;28;20029;-76
2021/09/29 01:52:15;;;;;;;1.55;0.30;;;;;;;9.60;86.64;100184.16;4976981;28;20030;-76
2021/09/29 01:54:45;;;;;;;0.63;0.20;;;;;;;9.63;86.64;100187.47;4978869;28;20492;-77
2021/09/29 01:57:10;;;;;;;0.45;0.28;;;;;;;9.65;86.59;100185.28;4990421;28;20034;-78
2021/09/29 01:59:36;;;;;;;2.30;0.40;;;;;;;9.67;86.75;100188.59;4992989;28;20041;-79
2021/09/29 02:02:02;;;;;;;0.73;0.38;;;;;;;9.67;86.57;100188.59;4991252;28;20038;-75
2021/09/29 02:04:35;;;;;;;0.38;0.20;;;;;;;9.61;86.52;100191.28;4995583;28;20058;-76
2021/09/29 02:07:01;;;;;;;1.02;0.52;;;;;;;9.65;86.67;100190.75;4987485;28;20034;-77
2021/09/29 02:09:28;;;;;;;1.67;0.40;;;;;;;9.67;86.86;100194.06;4986439;28;20042;-75
2021/09/29 02:12:06;;;;;;;;;;;;;;;;;;;;;
2021/09/29 02:14:32;;;;;;;1.23;0.45;;;;;;;9.66;87.35;100181.47;4985116;28;20404;-75
2021/09/29 02:16:58;;;;;;;0.55;0.28;;;;;;;9.71;86.95;100185.06;4982916;28;20138;-77
2021/09/29 02:19:24;;;;;;;0.30;0.20;;;;;;;9.79;87.04;100200.09;4985565;28;20038;-76
2021/09/29 02:21:51;;;;;;;1.40;0.30;;;;;;;9.79;87.11;100208.31;4989587;28;20038;-76
2021/09/29 02:24:16;;;;;;;1.58;0.30;;;;;;;9.76;87.01;100215.09;4992016;28;20061;-75
2021/09/29 02:26:42;;;;;;;0.95;0.30;;;;;;;9.73;86.47;100212.09;4992365;28;20035;-76
2021/09/29 02:29:10;;;;;;;1.33;0.60;;;;;;;9.71;86.59;100227.91;4968971;28;20023;-77
2021/09/29 02:31:39;;;;;;;0.68;0.20;;;;;;;9.63;86.94;100214.78;4986965;28;20033;-76
2021/09/29 02:34:06;;;;;;;0.68;0.35;;;;;;;9.67;86.52;100229.56;4983167;28;20032;-75
2021/09/29 02:36:32;;;;;;;1.08;0.40;;;;;;;9.59;86.77;100212.59;4984974;28;20030;-76
2021/09/29 02:38:57;;;;;;;0.30;0.20;;;;;;;9.65;86.89;100228.97;4991230;28;20093;-77
2021/09/29 02:41:23;;;;;;;0.93;0.20;;;;;;;9.70;87.20;100238.03;4984909;28;20030;-77
2021/09/29 02:43:49;;;;;;;0.60;0.28;;;;;;;9.72;87.00;100229.56;4984731;28;20031;-76
2021/09/29 02:46:15;;;;;;;1.08;0.30;;;;;;;9.76;86.78;100241.59;4973391;28;20050;-76
2021/09/29 02:48:40;;;;;;;0.70;0.25;;;;;;;9.72;86.94;100245.94;4983937;28;20085;-75
2021/09/29 02:51:06;;;;;;;0.52;0.40;;;;;;;9.71;86.78;100249.75;4987001;28;20034;-74
2021/09/29 02:53:31;;;;;;;4.00;0.35;;;;;;;9.67;86.72;100254.94;4975803;28;20088;-76
2021/09/29 02:55:58;;;;;;;2.35;0.10;;;;;;;9.62;86.52;100252.16;4982550;28;20054;-76
2021/09/29 02:58:25;;;;;;;0.50;0.30;;;;;;;9.64;87.06;100249.16;4995507;28;20121;-77
2021/09/29 03:00:51;;;;;;;0.43;0.32;;;;;;;9.66;86.74;100252.47;4987455;28;20026;-76
2021/09/29 03:03:18;;;;;;;0.63;0.40;;;;;;;9.72;87.16;100257.69;4970784;28;20038;-75
2021/09/29 03:05:44;;;;;;;4.13;0.25;;;;;;;9.72;86.67;100256.88;4965123;28;20042;-76
2021/09/29 03:08:09;;;;;;;0.40;0.30;;;;;;;9.66;86.64;100256.00;4985716;28;20039;-75
2021/09/29 03:10:37;;;;;;;0.20;0.10;;;;;;;9.67;86.39;100259.59;4986646;28;20049;-75
2021/09/29 03:13:06;;;;;;;0.50;0.20;;;;;;;9.68;86.94;100275.69;4976918;28;20122;-76
2021/09/29 03:15:31;;;;;;;0.10;0.10;;;;;;;9.64;86.06;100282.78;4987580;28;20040;-76
2021/09/29 03:17:57;;;;;;;1.70;0.40;;;;;;;9.55;86.09;100268.78;4972764;28;20039;-77
2021/09/29 03:20:24;;;;;;;0.85;0.35;;;;;;;9.44;86.16;100269.78;4979771;28;20037;-77
2021/09/29 03:22:51;;;;;;;0.60;0.45;;;;;;;9.46;86.26;100291.38;4972480;28;20027;-77
2021/09/29 03:25:16;;;;;;;1.27;0.25;;;;;;;9.32;85.81;100285.56;4992759;28;20026;-76
2021/09/29 03:27:52;;;;;;;;;;;;;;;;;;;;;
2021/09/29 03:30:28;;;;;;;0.10;0.10;;;;;;;9.30;86.13;100298.63;4993896;28;20089;-77
2021/09/29 03:32:56;;;;;;;0.93;0.43;;;;;;;9.22;85.89;100303.47;4989724;28;20070;-76
2021/09/29 03:35:21;;;;;;;0.22;0.20;;;;;;;9.16;86.33;100299.06;4997011;28;20102;-76
2021/09/29 03:37:47;;;;;;;0.25;0.20;;;;;;;9.19;86.14;100303.97;4994786;28;20058;-75
2021/09/29 03:40:14;;;;;;;0.25;0.20;;;;;;;9.18;86.64;100312.44;4988370;28;20532;-74
2021/09/29 03:42:41;;;;;;;1.45;0.10;;;;;;;9.24;86.80;100319.56;4993073;28;20046;-75
2021/09/29 03:45:07;;;;;;;0.68;0.20;;;;;;;9.22;86.56;100322.56;5003307;28;20045;-75
2021/09/29 03:47:33;;;;;;;3.30;0.35;;;;;;;9.21;86.47;100331.84;4990974;28;20026;-75
2021/09/29 03:49:59;;;;;;;5.28;0.40;;;;;;;9.19;86.37;100330.47;4988899;28;20026;-76
2021/09/29 03:52:26;;;;;;;0.93;0.25;;;;;;;9.21;86.72;100329.13;4979166;28;20034;-75
2021/09/29 03:54:52;;;;;;;1.00;0.20;;;;;;;9.12;86.31;100317.00;4971690;28;20400;-76
2021/09/29 03:57:18;;;;;;;0.90;0.50;;;;;;;9.19;86.95;100336.72;4979206;28;20122;-75
2021/09/29 03:59:44;;;;;;;6.22;0.47;;;;;;;9.16;86.69;100325.53;4991092;28;20050;-74
2021/09/29 04:02:09;;;;;;;1.70;0.30;;;;;;;9.11;86.42;100329.00;4989777;28;20023;-75
2021/09/29 04:04:35;;;;;;;0.28;0.13;;;;;;;9.13;86.79;100335.03;4992356;28;20043;-75
2021/09/29 04:07:03;;;;;;;1.05;0.25;;;;;;;9.16;86.01;100348.16;4992285;28;20030;-75
2021/09/29 04:09:31;;;;;;;0.73;0.22;;;;;;;9.08;86.64;100345.88;4996318;28;20045;-77
2021/09/29 04:11:59;;;;;;;1.25;0.10;;;;;;;9.02;85.79;100347.78;4991153;28;20026;-76
2021/09/29 04:14:25;;;;;;;2.65;0.30;;;;;;;8.93;86.23;100346.56;4993965;28;20027;-75
2021/09/29 04:16:52;;;;;;;2.05;0.30;;;;;;;8.93;86.12;100353.94;4989426;28;20033;-75
2021/09/29 04:19:20;;;;;;;0.30;0.20;;;;;;;8.74;86.27;100335.19;4982344;28;20030;-76
2021/09/29 04:21:46;;;;;;;1.98;0.20;;;;;;;8.80;85.86;100350.50;4969994;28;20066;-76
2021/09/29 04:24:12;;;;;;;0.35;0.30;;;;;;;8.73;85.20;100349.88;4989137;28;20015;-77
2021/09/29 04:26:39;;;;;;;0.80;0.40;;;;;;;8.61;85.64;100351.94;4992864;28;20125;-75
2021/09/29 04:29:04;;;;;;;3.72;0.40;;;;;;;8.60;85.87;100355.75;4972125;28;20027;-76
2021/09/29 04:31:42;;;;;;;1.85;0.20;;;;;;;8.65;86.23;100372.16;4985973;28;20026;-76
2021/09/29 04:34:15;;;;;;;0.20;0.20;;;;;;;8.47;86.58;100362.38;4980850;28;20033;-76
2021/09/29 04:36:47;;;;;;;3.25;1.58;;;;;;;8.43;86.50;100356.59;4960048;28;20049;-77
2021/09/29 04:39:37;;;;;;;3.72;0.25;;;;;;;8.45;86.15;100376.28;4991269;28;20022;-76
2021/09/29 04:42:03;;;;;;;1.52;0.30;;;;;;;8.48;85.99;100392.13;4995838;28;20034;-77
2021/09/29 04:44:28;;;;;;;1.02;0.30;;;;;;;8.44;86.49;100391.00;4996173;28;20106;-75
2021/09/29 04:47:02;;;;;;;0.50;0.20;;;;;;;8.46;86.30;100398.91;4990278;28;20060;-77
2021/09/29 04:49:27;;;;;;;1.45;0.40;;;;;;;8.46;86.11;100410.63;4991661;28;20388;-76
2021/09/29 04:51:53;;;;;;;1.95;0.60;;;;;;;8.37;86.69;100401.22;4988052;28;20038;-77
2021/09/29 04:54:18;;;;;;;0.25;0.25;;;;;;;8.39;86.17;100421.66;4974598;28;20018;-75
2021/09/29 04:56:46;;;;;;;0.28;0.13;;;;;;;8.44;86.25;100429.16;4999305;28;20033;-76
2021/09/29 04:59:20;;;;;;;0.40;0.30;;;;;;;8.38;86.26;100420.03;4986784;28;20034;-78
2021/09/29 05:01:45;;;;;;;0.40;0.40;;;;;;;8.36;86.26;100432.25;4988019;28;20026;-78
2021/09/29 05:04:23;;;;;;;;;;;;;;;;;;;;;
2021/09/29 05:06:50;;;;;;;0.90;0.38;;;;;;;8.33;86.37;100439.03;4991841;28;20034;-78
2021/09/29 05:09:15;;;;;;;1.33;0.25;;;;;;;8.27;86.13;100436.50;4984096;28;20373;-76
2021/09/29 05:12:04;;;;;;;1.85;0.43;;;;;;;8.24;86.09;100439.72;4996338;28;20034;-76
2021/09/29 05:14:35;;;;;;;0.38;0.20;;;;;;;8.34;85.43;100467.13;5014426;28;20027;-77
2021/09/29 05:17:00;;;;;;;3.75;0.40;;;;;;;8.21;85.86;100463.66;4970528;28;20117;-78
2021/09/29 05:19:34;;;;;;;1.98;0.32;;;;;;;8.18;86.14;100469.59;4976785;28;20429;-78
2021/09/29 05:22:07;;;;;;;1.48;0.17;;;;;;;8.23;86.33;100470.75;4965072;28;20058;-78
2021/09/29 05:24:32;;;;;;;0.30;0.20;;;;;;;8.24;86.09;100484.13;4979136;28;20057;-77
2021/09/29 05:26:58;;;;;;;0.95;0.20;;;;;;;8.11;85.44;100474.41;4986130;28;20104;-77
2021/09/29 05:29:23;;;;;;;0.77;0.30;;;;;;;8.13;85.71;100483.16;4996623;28;20042;-77
2021/09/29 05:31:49;;;;;;;0.32;0.30;;;;;;;8.06;85.81;100482.50;4986704;28;20032;-78
2021/09/29 05:34:14;;;;;;;2.83;0.22;;;;;;;8.02;85.62;100487.59;4993903;28;20083;-78
2021/09/29 05:36:41;;;;;;;1.10;0.30;;;;;;;7.97;85.20;100489.41;4990390;28;20030;-78
2021/09/29 05:39:14;;;;;;;1.83;0.45;;;;;;;7.98;85.94;100491.06;4962258;28;20046;-77
2021/09/29 05:41:39;;;;;;;0.40;0.20;;;;;;;7.89;85.89;100481.66;4966832;28;20030;-75
2021/09/29 05:44:05;;;;;;;3.20;0.80;;;;;;;7.90;85.24;100491.47;4995474;28;20048;-78
2021/09/29 05:46:30;;;;;;;0.88;0.43;;;;;;;7.88;85.50;100490.91;4981800;28;20369;-77
2021/09/29 05:48:58;;;;;;;2.05;0.30;;;;;;;7.82;85.82;100490.81;4986982;28;20047;-76
2021/09/29 05:51:34;;;;;;;;;;;;;;;;;;;;;
2021/09/29 05:54:00;;;;;;;0.50;0.30;;;;;;;7.90;85.61;100515.97;4993420;28;20036;-78
2021/09/29 05:56:34;;;;;;;2.83;0.73;;;;;;;7.90;85.31;100522.25;4987270;28;20423;-76
2021/09/29 05:59:00;;;;;;;0.50;0.20;;;;;;;7.91;85.76;100528.53;4968318;28;20040;-76
2021/09/29 06:01:30;;;;;;;0.60;0.30;;;;;;;7.92;85.38;100543.81;4984109;28;20355;-76
2021/09/29 06:04:00;;;;;;;0.30;0.20;;;;;;;7.80;85.67;100536.50;4995541;28;20069;-76
2021/09/29 06:06:26;;;;;;;0.30;0.20;;;;;;;7.89;85.92;100552.47;4987852;28;20085;-78
2021/09/29 06:08:58;;;;;;;1.45;0.47;;;;;;;7.88;85.04;100550.81;4992852;28;20030;-76
2021/09/29 06:11:24;;;;;;;0.55;0.50;;;;;;;7.87;85.47;100560.88;4978149;28;20026;-77
2021/09/29 06:13:49;;;;;;;1.90;0.30;;;;;;;7.90;85.99;100564.97;4984061;28;20039;-77
2021/09/29 06:16:17;;;;;;;4.32;0.52;;;;;;;7.85;85.08;100563.81;4994452;28;20027;-74
2021/09/29 06:18:43;;;;;;;0.10;0.10;;;;;;;7.91;85.21;100578.34;4990230;28;20124;-77
2021/09/29 06:21:08;;;;;;;0.35;0.20;;;;;;;7.93;85.32;100583.56;4990879;28;20026;-76
2021/09/29 06:23:35;;;;;;;0.20;0.20;;;;;;;7.93;85.04;100591.72;4988608;28;20050;-74
2021/09/29 06:26:02;;;;;;;0.82;0.40;;;;;;;7.85;85.47;100591.03;4987153;28;20434;-75
2021/09/29 06:28:34;;;;;;;2.85;0.60;;;;;;;7.72;85.50;100596.78;4984986;28;20035;-74
2021/09/29 06:30:59;;;;;;;1.15;0.50;;;;;;;7.70;85.41;100598.94;4983397;28;20574;-75
2021/09/29 06:33:25;;;;;;;0.40;0.40;;;;;;;7.70;85.68;100604.38;4989320;28;20034;-73
2021/09/29 06:35:50;;;;;;;0.35;0.35;;;;;;;7.63;85.68;100603.69;4988695;28;20022;-73
2021/09/29 06:38:16;;;;;;;0.73;0.28;;;;;;;7.54;85.92;100599.72;4973712;28;20052;-75
2021/09/29 06:40:41;;;;;;;1.90;0.38;;;;;;;7.57;86.47;100618.28;4968722;28;20080;-73
2021/09/29 06:43:07;;;;;;;0.85;0.45;;;;;;;7.61;86.92;100622.19;4992784;28;20027;-74
2021/09/29 06:45:34;;;;;;;0.30;0.20;;;;;;;7.69;86.88;100624.50;4979351;28;20056;-73
2021/09/29 06:47:59;;;;;;;3.58;0.50;;;;;;;7.69;87.23;100613.59;4989592;28;20061;-74
2021/09/29 06:50:25;;;;;;;1.40;0.50;;;;;;;7.75;87.02;100623.53;5000610;28;20065;-73
2021/09/29 06:52:50;;;;;;;1.70;0.60;;;;;;;7.81;86.60;100622.56;4984511;28;20040;-75
2021/09/29 06:55:16;;;;;;;4.25;0.38;;;;;;;7.88;86.55;100627.03;4983608;28;20404;-75
2021/09/29 06:57:41;;;;;;;3.22;0.50;;;;;;;7.89;87.10;100628.69;4983547;28;20491;-76
2021/09/29 07:00:09;;;;;;;1.20;0.35;;;;;;;7.96;86.37;100640.28;4983687;28;20660;-75
2021/09/29 07:02:40;;;;;;;4.78;0.60;;;;;;;7.95;86.97;100638.63;4983603;28;20397;-74
2021/09/29 07:05:07;;;;;;;0.77;0.47;;;;;;;7.99;87.08;100645.22;4971327;28;20170;-76
2021/09/29 07:07:34;;;;;;;6.50;0.45;;;;;;;8.07;86.29;100646.72;4969457;28;20121;-75
2021/09/29 07:10:00;;;;;;;0.80;0.35;;;;;;;8.12;86.40;100660.44;4990347;28;20049;-75
2021/09/29 07:12:26;;;;;;;1.33;0.40;;;;;;;8.11;87.36;100654.16;4982380;28;20027;-77
2021/09/29 07:14:51;;;;;;;1.60;0.50;;;;;;;8.20;86.59;100671.75;4973863;28;20054;-74
2021/09/29 07:17:17;;;;;;;1.98;0.45;;;;;;;8.21;86.66;100665.25;4972625;28;20121;-76
2021/09/29 07:19:42;;;;;;;1.80;0.30;;;;;;;8.29;86.74;100676.81;4957046;28;20038;-75
2021/09/29 07:25:34;;;;;;;3.25;0.38;;;;;;;8.47;86.97;100683.97;4965226;28;20193;-75
2021/09/29 07:28:00;;;;;;;8.43;0.93;;;;;;;8.52;86.88;100687.63;4984640;28;20042;-74
2021/09/29 07:30:26;;;;;;;0.77;0.50;;;;;;;8.62;86.16;100697.06;4979526;28;20066;-75
2021/09/29 07:32:52;;;;;;;3.72;0.60;;;;;;;8.70;86.07;100710.28;4973944;28;20081;-75
2021/09/29 07:35:18;;;;;;;1.45;0.30;;;;;;;8.77;85.71;100713.69;4976584;28;20118;-76
2021/09/29 07:37:44;;;;;;;1.88;0.40;;;;;;;8.83;85.86;100714.59;4984745;28;20046;-76
2021/09/29 07:40:13;;;;;;;1.60;0.22;;;;;;;9.00;86.08;100720.06;4952557;28;20050;-75
2021/09/29 07:42:39;;;;;;;0.57;0.20;;;;;;;9.29;85.50;100733.56;4971786;28;20082;-75
2021/09/29 07:45:07;;;;;;;6.13;0.73;;;;;;;9.55;84.63;100737.50;4971252;28;20447;-77
2021/09/29 07:47:36;;;;;;;2.13;0.47;;;;;;;9.84;83.26;100740.94;4985027;28;20038;-75
2021/09/29 07:50:04;;;;;;;3.58;0.57;;;;;;;10.19;82.88;100745.19;4979309;28;20036;-76
2021/09/29 07:52:29;;;;;;;3.67;0.52;;;;;;;10.54;81.31;100743.09;4972553;28;20065;-74
2021/09/29 07:54:55;;;;;;;3.20;0.28;;;;;;;10.89;80.17;100756.28;4967125;28;20062;-76
2021/09/29 07:57:22;;;;;;;1.85;0.30;;;;;;;11.28;79.53;100758.81;4975495;28;20503;-74
2021/09/29 07:59:48;;;;;;;2.22;0.45;;;;;;;11.60;77.06;100766.13;4962280;28;20086;-75
2021/09/29 08:02:13;;;;;;;1.63;0.40;;;;;;;11.87;75.95;100770.66;4966073;28;20130;-75
2021/09/29 08:04:41;;;;;;;0.38;0.20;;;;;;;12.10;74.36;100769.44;4956764;28;20078;-74
2021/09/29 08:07:09;;;;;;;6.40;1.67;;;;;;;12.44;74.39;100773.66;4941714;28;20074;-76
2021/09/29 08:09:35;;;;;;;2.28;0.30;;;;;;;12.69;73.72;100776.47;4979250;28;20480;-75
2021/09/29 08:12:01;;;;;;;2.38;0.40;;;;;;;13.07;72.08;100777.06;4961935;28;20042;-76
2021/09/29 08:14:26;;;;;;;0.15;0.10;;;;;;;13.42;70.39;100782.88;4957827;28;20038;-76
2021/09/29 08:16:52;;;;;;;1.75;0.20;;;;;;;13.79;70.24;100787.19;4956987;28;20023;-76
2021/09/29 08:19:17;;;;;;;2.15;0.45;;;;;;;14.07;69.10;100785.72;4949566;28;20035;-76
2021/09/29 08:21:47;;;;;;;1.15;0.40;;;;;;;14.44;68.04;100789.13;4991135;28;20030;-76
2021/09/29 08:24:17;;;;;;;1.17;0.28;;;;;;;14.68;65.34;100789.31;4975228;28;20087;-76
2021/09/29 08:27:00;;;;;;;1.27;0.45;;;;;;;14.81;63.60;100791.41;4982793;28;20090;-76
2021/09/29 08:32:03;;;;;;;0.65;0.40;;;;;;;15.27;63.19;100803.19;4976401;28;20107;-76
2021/09/29 08:45:48;;;;;;;2.40;0.40;;;;;;;16.09;58.86;100801.56;4969285;28;20519;-75
2021/09/29 08:48:35;;;;;;;1.08;0.40;;;;;;;16.53;58.89;100819.81;4979342;28;20119;-75
2021/09/29 08:54:09;;;;;;;0.70;0.68;;;;;;;17.12;54.85;100822.31;4970522;28;20097;-76
2021/09/29 09:15:55;;;;;;;2.47;0.20;;;;;;;18.59;49.45;100866.13;4965501;28;20045;-75
2021/09/29 09:18:21;;;;;;;0.88;0.35;;;;;;;18.76;51.96;100869.06;4990986;28;20034;-76
2021/09/29 09:21:05;;;;;;;3.45;0.47;;;;;;;19.06;48.05;100888.94;4993398;28;20084;-75
2021/09/29 09:23:40;;;;;;;2.15;0.50;;;;;;;19.19;48.73;100876.16;4990905;28;20049;-75
2021/09/29 09:26:20;;;;;;;3.10;0.60;;;;;;;19.33;45.59;100882.47;4990454;28;20023;-75
2021/09/29 09:28:48;;;;;;;1.75;0.45;;;;;;;19.14;45.99;100888.19;4997809;28;20056;-76
2021/09/29 09:31:19;;;;;;;2.80;0.43;;;;;;;19.15;46.63;100886.22;4995365;28;20026;-76
2021/09/29 09:34:08;;;;;;;3.78;0.50;;;;;;;19.52;45.55;100900.88;4988672;28;20030;-74
2021/09/29 09:36:41;;;;;;;1.52;0.35;;;;;;;19.48;46.43;100903.47;4944027;28;20520;-78
2021/09/29 09:39:09;;;;;;;1.10;0.20;;;;;;;19.69;45.68;100900.19;4969838;28;20428;-76
2021/09/29 09:41:36;;;;;;;0.40;0.20;;;;;;;20.03;45.48;100905.16;4973035;28;20029;-78
2021/09/29 09:44:05;;;;;;;1.17;0.57;;;;;;;20.45;44.38;100904.03;4977182;28;20060;-76
2021/09/29 09:46:33;;;;;;;1.98;0.50;;;;;;;20.71;41.92;100906.91;4993137;28;20022;-76
2021/09/29 09:49:07;;;;;;;0.50;0.20;;;;;;;20.50;42.06;100910.25;4986453;28;20037;-78
2021/09/29 09:51:45;;;;;;;0.90;0.40;;;;;;;20.66;41.88;100918.13;4984481;28;20109;-77
2021/09/29 09:54:11;;;;;;;1.50;0.20;;;;;;;21.01;41.38;100932.16;4971923;28;20743;-77
2021/09/29 09:56:37;;;;;;;1.63;0.32;;;;;;;21.20;42.18;100929.06;4989760;28;20469;-76
2021/09/29 09:59:07;;;;;;;1.27;0.65;;;;;;;21.55;40.52;100924.38;4988275;28;20022;-76
2021/09/29 10:01:33;;;;;;;0.60;0.30;;;;;;;21.91;42.48;100930.69;4991906;28;20041;-74
2021/09/29 10:04:13;;;;;;;0.80;0.30;;;;;;;22.79;39.87;100932.03;4978326;28;20035;-75
2021/09/29 10:06:39;;;;;;;1.40;0.35;;;;;;;23.11;39.85;100943.63;4971332;28;20022;-75
2021/09/29 10:09:11;;;;;;;7.10;0.40;;;;;;;23.35;34.23;100942.16;4972054;28;20346;-75
2021/09/29 10:28:18;;;;;;;3.75;0.32;;;;;;;23.14;31.31;100970.03;5002016;28;20045;-74
2021/09/29 10:31:12;;;;;;;0.77;0.57;;;;;;;23.08;32.62;100972.16;4986956;28;20572;-74
2021/09/29 10:33:45;;;;;;;4.43;0.20;;;;;;;23.77;34.24;100975.63;4997051;28;20050;-75
2021/09/29 10:42:07;;;;;;;4.72;0.40;;;;;;;24.82;29.58;100988.44;4986084;28;20472;-74
2021/09/29 10:47:55;;;;;;;0.68;0.40;;;;;;;24.96;28.60;101015.28;4991043;28;20038;-73
2021/09/29 10:50:51;;;;;;;0.70;0.70;;;;;;;23.42;29.21;100995.47;4964382;28;20038;-75
2021/09/29 11:29:53;;;;;;;0.52;0.25;;;;;;;23.94;29.40;101029.72;4904749;29;20039;-74
2021/09/29 11:34:50;;;;;;;0.80;0.30;;;;;;;24.19;28.18;101028.63;4968527;28;20015;-76
2021/09/29 11:37:47;;;;;;;0.43;0.00;;;;;;;22.90;28.04;101035.59;4969176;28;20034;-74
2021/09/29 12:08:10;;;;;;;0.38;0.25;;;;;;;29.49;20.94;101089.03;4986420;28;20125;-73
2021/09/29 12:10:47;;;;;;;0.52;0.20;;;;;;;27.81;22.19;101077.88;4974795;28;20547;-75
2021/09/29 12:13:52;;;;;;;0.68;0.20;;;;;;;26.25;23.08;101082.81;4980645;28;20026;-74
2021/09/29 12:16:50;;;;;;;0.88;0.50;;;;;;;24.29;26.70;101097.25;4980179;28;20037;-76
2021/09/29 12:19:35;;;;;;;0.65;0.35;;;;;;;24.70;25.87;101077.94;4959186;28;20043;-76
2021/09/29 12:22:23;;;;;;;0.70;0.40;;;;;;;25.89;25.38;101085.38;4990364;28;20061;-75
2021/09/29 12:30:27;;;;;;;0.22;0.10;;;;;;;27.14;22.08;101086.34;4982841;28;20389;-74
2021/09/29 12:36:00;;;;;;;;;;;;;;;;;;;;;
2021/09/29 12:38:40;;;;;;;0.82;0.35;;;;;;;26.97;22.93;101096.78;4980174;28;20137;-75
2021/09/29 12:41:06;;;;;;;0.40;0.20;;;;;;;27.36;23.81;101103.75;4962550;28;20105;-75
2021/09/29 12:43:44;;;;;;;;;;;;;;;;;;;;;
2021/09/29 12:46:16;;;;;;;4.63;0.45;;;;;;;28.83;20.83;101106.03;4986524;28;21229;-71
2021/09/29 12:48:49;;;;;;;0.55;0.30;;;;;;;27.95;21.98;101122.38;4982880;28;20026;-69
2021/09/29 12:51:15;;;;;;;1.73;0.20;;;;;;;26.18;22.96;101110.63;4967048;28;20049;-70
2021/09/29 12:53:51;;;;;;;1.85;0.47;;;;;;;25.05;24.37;101111.09;4990631;28;20022;-70
2021/09/29 12:56:17;;;;;;;1.42;0.30;;;;;;;24.70;25.00;101111.50;4972147;28;20037;-72
2021/09/29 12:58:47;;;;;;;0.85;0.38;;;;;;;24.02;25.65;101110.63;4986472;28;20073;-70
2021/09/29 13:01:16;;;;;;;3.40;0.20;;;;;;;23.09;27.29;101090.16;4971822;28;20069;-71
2021/09/29 13:03:43;;;;;;;2.30;0.20;;;;;;;23.45;27.38;101103.63;4972587;28;20122;-72
2021/09/29 13:06:13;;;;;;;0.73;0.40;;;;;;;24.12;26.82;101109.38;4963826;28;20069;-69
2021/09/29 13:08:44;;;;;;;0.52;0.20;;;;;;;25.96;26.51;101115.56;4937895;28;20031;-71
2021/09/29 13:11:12;;;;;;;0.32;0.20;;;;;;;26.47;24.14;101124.31;4953643;28;20077;-69
2021/09/29 13:13:40;;;;;;;7.93;0.40;;;;;;;26.46;23.31;101150.69;4950094;28;20015;-71
2021/09/29 13:16:07;;;;;;;1.42;0.50;;;;;;;25.73;22.98;101132.91;4968994;28;20031;-71
2021/09/29 13:21:26;;;;;;;0.75;0.10;;;;;;;25.74;22.37;101131.75;4962678;28;20057;-70
2021/09/29 13:24:10;;;;;;;3.45;0.32;;;;;;;25.22;23.74;101133.25;4971790;28;20021;-72
2021/09/29 13:37:29;;;;;;;0.32;0.10;;;;;;;21.34;33.62;101180.06;4965614;28;20053;-70
2021/09/29 13:39:54;;;;;;;0.85;0.10;;;;;;;20.81;34.10;101189.25;4969004;28;20527;-72
2021/09/29 13:42:23;;;;;;;0.28;0.08;;;;;;;20.42;34.42;101187.97;4971829;28;20030;-68
2021/09/29 13:44:48;;;;;;;0.10;0.05;;;;;;;20.02;36.25;101175.53;4940744;28;20023;-70
2021/09/29 13:47:14;;;;;;;0.17;0.10;;;;;;;19.76;36.77;101177.22;4969963;28;20043;-71
2021/09/29 13:49:39;;;;;;;0.20;0.10;;;;;;;19.47;37.44;101164.47;4971068;28;20362;-70
2021/09/29 13:52:18;;;;;;;0.10;0.10;;;;;;;19.42;37.64;101164.56;4968899;28;20046;-70
2021/09/29 13:54:48;;;;;;;0.30;0.08;;;;;;;19.82;37.76;101176.00;4969528;28;20011;-70
2021/09/29 13:57:20;;;;;;;0.20;0.00;;;;;;;20.80;39.50;101182.06;4949277;28;20031;-70
2021/09/29 13:59:53;;;;;;;0.30;0.10;;;;;;;22.98;37.56;101184.50;4970514;28;20026;-71
2021/09/29 14:30:58;;;;;;;2.53;0.40;;;;;;;21.78;35.40;101202.50;4987938;28;20554;-72
2021/09/29 14:33:38;;;;;;;3.92;0.30;;;;;;;21.28;35.78;101203.59;4986570;28;20034;-72
2021/09/29 14:36:15;;;;;;;1.00;0.43;;;;;;;20.92;36.66;101205.38;4970240;28;20038;-70
2021/09/29 14:38:51;;;;;;;0.40;0.20;;;;;;;20.55;37.55;101195.44;4976867;28;20152;-72
2021/09/29 14:41:27;;;;;;;;;;;;;;;;;;;;;
2021/09/29 14:44:02;;;;;;;7.82;0.47;;;;;;;20.19;38.05;101201.81;4973594;28;20041;-71
2021/09/29 14:46:30;;;;;;;0.52;0.50;;;;;;;19.87;38.64;101220.28;4979149;28;20053;-73
2021/09/29 14:48:56;;;;;;;0.68;0.30;;;;;;;19.44;39.01;101210.28;4973383;28;20380;-71
2021/09/29 14:51:24;;;;;;;6.60;0.40;;;;;;;18.91;40.13;101222.63;4959030;28;20092;-71
2021/09/29 14:53:59;;;;;;;7.25;1.02;;;;;;;18.02;48.61;101198.44;4981082;28;20033;-71
2021/09/29 14:59:11;;;;;;;0.75;0.20;;;;;;;17.51;52.30;101206.25;4961798;28;20038;-71